Time;durP1;ratioP1;P1;durP2;ratioP2;P2;SDS_P1;SDS_P2;PMS_P1;PMS_P2;Temp;Humidity;BMP_temperature;BMP_pressure;BME280_temperature;BME280_humidity;BME280_pressure;Samples;Min_cycle;Max_cycle;Signal;HPM_P1;HPM_P2
2022/11/28 00:01:40;;;;;;;1999.90;999.90;;;;;;;0.98;100.00;98655.22;5039139;28;20024;-75
2022/11/28 00:04:06;;;;;;;1999.90;999.90;;;;;;;0.97;100.00;98653.56;5032572;28;20061;-74
2022/11/28 00:06:36;;;;;;;1999.90;999.90;;;;;;;0.96;100.00;98646.53;5051806;28;20025;-76
2022/11/28 00:09:01;;;;;;;1999.90;999.90;;;;;;;0.87;100.00;98645.16;5039936;28;20033;-75
2022/11/28 00:11:27;;;;;;;1999.90;999.90;;;;;;;0.84;100.00;98645.59;5032001;28;20056;-74
2022/11/28 00:13:53;;;;;;;1999.90;999.90;;;;;;;0.91;100.00;98657.13;5034978;28;20056;-77
2022/11/28 00:16:21;;;;;;;1999.90;999.90;;;;;;;0.86;100.00;98651.56;5038345;28;20175;-76
2022/11/28 00:18:51;;;;;;;1999.90;999.90;;;;;;;0.94;100.00;98648.59;5046509;28;20032;-76
2022/11/28 00:21:17;;;;;;;1999.90;999.90;;;;;;;0.98;100.00;98639.06;5045919;28;20133;-75
2022/11/28 00:23:44;;;;;;;1999.90;999.90;;;;;;;1.08;100.00;98638.59;5045809;28;20018;-76
2022/11/28 00:26:13;;;;;;;1999.90;999.90;;;;;;;0.93;100.00;98635.38;5050644;28;20025;-76
2022/11/28 00:28:39;;;;;;;1999.90;999.90;;;;;;;0.91;100.00;98642.81;5053108;28;20040;-77
2022/11/28 00:31:05;;;;;;;1999.90;999.90;;;;;;;0.88;100.00;98633.31;5050415;28;20033;-75
2022/11/28 00:33:31;;;;;;;1999.90;999.90;;;;;;;0.92;100.00;98631.03;5043570;28;20163;-74
2022/11/28 00:36:02;;;;;;;1999.90;999.90;;;;;;;0.92;100.00;98636.41;5049032;28;20142;-74
2022/11/28 00:38:28;;;;;;;1999.90;999.90;;;;;;;0.98;100.00;98628.28;5032923;28;20025;-75
2022/11/28 00:41:15;;;;;;;1999.90;999.90;;;;;;;0.99;100.00;98640.72;5033315;28;20378;-74
2022/11/28 00:43:42;;;;;;;1999.90;999.90;;;;;;;0.92;100.00;98629.16;5051557;28;20041;-75
2022/11/28 00:46:08;;;;;;;1999.90;999.90;;;;;;;0.93;100.00;98628.13;5050977;28;20103;-74
2022/11/28 00:48:34;;;;;;;1999.90;999.90;;;;;;;0.97;100.00;98636.59;5049700;28;20021;-74
2022/11/28 00:51:12;;;;;;;1999.90;999.90;;;;;;;0.88;100.00;98629.78;5049523;28;20385;-75
2022/11/28 00:53:40;;;;;;;1999.90;999.90;;;;;;;0.86;100.00;98632.72;5049106;28;20033;-76
2022/11/28 00:56:07;;;;;;;1999.90;999.90;;;;;;;0.99;100.00;98615.66;5030334;28;20494;-76
2022/11/28 00:58:34;;;;;;;1999.90;999.90;;;;;;;0.94;100.00;98605.53;5030659;28;20163;-76
2022/11/28 01:01:05;;;;;;;1999.90;999.90;;;;;;;0.97;100.00;98615.84;5030632;28;20096;-74
2022/11/28 01:03:30;;;;;;;1999.90;999.90;;;;;;;1.04;100.00;98615.81;5030056;28;20479;-75
2022/11/28 01:05:56;;;;;;;1999.90;999.90;;;;;;;1.00;100.00;98620.81;5047447;28;20041;-76
2022/11/28 01:08:21;;;;;;;1999.90;999.90;;;;;;;1.02;100.00;98604.44;5049369;28;20039;-76
2022/11/28 01:10:46;;;;;;;1999.90;999.90;;;;;;;1.07;100.00;98621.59;5049193;28;20036;-75
2022/11/28 01:13:12;;;;;;;1999.90;999.90;;;;;;;1.02;100.00;98613.34;5050963;28;20024;-76
2022/11/28 01:15:42;;;;;;;1999.90;999.90;;;;;;;1.03;100.00;98606.91;5050592;28;20037;-75
2022/11/28 01:18:07;;;;;;;1999.90;999.90;;;;;;;1.08;100.00;98614.34;5051975;28;20028;-76
2022/11/28 01:20:33;;;;;;;1999.90;999.90;;;;;;;1.00;100.00;98595.78;5050488;28;20029;-77
2022/11/28 01:22:58;;;;;;;1999.90;999.90;;;;;;;0.93;100.00;98603.91;5032664;28;20033;-75
2022/11/28 01:25:24;;;;;;;1999.90;999.90;;;;;;;0.93;100.00;98593.13;5050606;28;20075;-75
2022/11/28 01:27:49;;;;;;;1999.90;999.90;;;;;;;0.83;100.00;98603.53;5050023;28;20490;-77
2022/11/28 01:30:15;;;;;;;1999.90;999.90;;;;;;;0.93;100.00;98603.91;5050458;28;20473;-74
2022/11/28 01:32:40;;;;;;;1999.90;999.90;;;;;;;0.91;100.00;98597.88;5048868;28;20033;-77
2022/11/28 01:35:06;;;;;;;1999.90;999.90;;;;;;;0.76;100.00;98580.38;5048160;28;20116;-76
2022/11/28 01:37:31;;;;;;;1999.90;999.90;;;;;;;0.90;100.00;98590.88;5049820;28;20036;-75
2022/11/28 01:39:57;;;;;;;1999.90;999.90;;;;;;;0.94;100.00;98593.97;5049997;28;20028;-73
2022/11/28 01:42:22;;;;;;;1999.90;999.90;;;;;;;1.05;100.00;98591.38;5049960;28;20029;-76
2022/11/28 01:44:47;;;;;;;1999.90;999.90;;;;;;;1.13;100.00;98592.16;5050264;28;20048;-75
2022/11/28 01:47:16;;;;;;;1999.90;999.90;;;;;;;1.11;100.00;98586.13;5050171;28;20052;-76
2022/11/28 01:49:44;;;;;;;1999.90;999.90;;;;;;;0.91;100.00;98584.41;5050202;28;20102;-75
2022/11/28 01:52:14;;;;;;;1999.90;999.90;;;;;;;0.92;100.00;98583.38;5051571;28;20028;-76
2022/11/28 01:54:42;;;;;;;1999.90;999.90;;;;;;;1.00;100.00;98583.09;5054706;28;20041;-76
2022/11/28 01:57:12;;;;;;;1999.90;999.90;;;;;;;1.01;100.00;98579.38;5050021;28;20037;-74
2022/11/28 01:59:46;;;;;;;1999.90;999.90;;;;;;;1.03;100.00;98571.91;5050167;28;20083;-75
2022/11/28 02:02:22;;;;;;;1999.90;999.90;;;;;;;1.03;100.00;98573.78;5050090;28;20036;-76
2022/11/28 02:04:49;;;;;;;1999.90;999.90;;;;;;;1.01;100.00;98565.91;5049942;28;20505;-74
2022/11/28 02:07:15;;;;;;;1999.90;999.90;;;;;;;0.99;100.00;98559.94;5050292;28;20041;-76
2022/11/28 02:09:40;;;;;;;1999.90;999.90;;;;;;;1.07;100.00;98558.81;5050297;28;20029;-75
2022/11/28 02:12:33;;;;;;;1999.90;999.90;;;;;;;1.08;100.00;98563.16;5049872;28;20021;-75
2022/11/28 02:15:33;;;;;;;1999.90;999.90;;;;;;;1.11;100.00;98549.25;5051039;28;20400;-78
2022/11/28 02:18:29;;;;;;;1999.90;999.90;;;;;;;1.12;100.00;98536.63;5053806;28;20025;-75
2022/11/28 02:21:02;;;;;;;1999.90;999.90;;;;;;;1.11;100.00;98534.97;5053805;28;20430;-77
2022/11/28 02:23:52;;;;;;;1999.90;999.90;;;;;;;1.14;100.00;98539.91;5053575;28;20029;-75
2022/11/28 02:26:30;;;;;;;1999.90;999.90;;;;;;;1.23;100.00;98523.25;5052245;28;20033;-74
2022/11/28 02:29:10;;;;;;;1999.90;999.90;;;;;;;1.25;100.00;98531.13;5053591;28;20033;-76
2022/11/28 02:32:22;;;;;;;1999.90;999.90;;;;;;;1.30;100.00;98531.28;5053480;28;20029;-74
2022/11/28 02:35:06;;;;;;;1999.90;999.90;;;;;;;1.21;100.00;98530.75;5048430;28;20040;-75
2022/11/28 02:37:46;;;;;;;1999.90;999.90;;;;;;;1.26;100.00;98528.19;5053384;28;20025;-74
2022/11/28 02:40:32;;;;;;;1999.90;999.90;;;;;;;1.29;100.00;98526.91;5052243;28;20029;-74
2022/11/28 02:43:08;;;;;;;1999.90;999.90;;;;;;;1.22;100.00;98516.22;5055284;28;20033;-76
2022/11/28 02:45:52;;;;;;;1999.90;999.90;;;;;;;1.37;100.00;98518.56;5058272;28;20137;-76
2022/11/28 02:48:42;;;;;;;1999.90;999.90;;;;;;;1.44;100.00;98514.75;5052255;28;20025;-77
2022/11/28 02:51:23;;;;;;;1999.90;999.90;;;;;;;1.42;100.00;98502.53;5053123;28;20029;-76
2022/11/28 02:53:51;;;;;;;1999.90;999.90;;;;;;;1.36;100.00;98501.56;5053223;28;20029;-75
2022/11/28 02:56:16;;;;;;;1999.90;999.90;;;;;;;1.26;100.00;98500.41;5051928;28;20495;-77
2022/11/28 02:58:42;;;;;;;1999.90;999.90;;;;;;;1.27;100.00;98505.59;5052968;28;20060;-76
2022/11/28 03:01:17;;;;;;;1999.90;999.90;;;;;;;1.30;100.00;98509.72;5052968;28;20025;-76
2022/11/28 03:03:48;;;;;;;1999.90;999.90;;;;;;;1.29;100.00;98510.75;5052984;28;20029;-75
2022/11/28 03:06:39;;;;;;;1999.90;999.90;;;;;;;1.28;100.00;98503.75;5052846;28;20127;-76
2022/11/28 03:09:16;;;;;;;1999.90;999.90;;;;;;;1.27;100.00;98497.53;5052885;28;20131;-75
2022/11/28 03:12:00;;;;;;;1999.90;999.90;;;;;;;1.36;100.00;98500.75;5051595;28;20029;-75
2022/11/28 03:14:53;;;;;;;1999.90;999.90;;;;;;;1.40;100.00;98491.16;5052819;28;20025;-74
2022/11/28 03:17:26;;;;;;;1999.90;999.90;;;;;;;1.42;100.00;98491.75;5052955;28;20025;-77
2022/11/28 03:19:54;;;;;;;1999.90;999.90;;;;;;;1.43;100.00;98486.16;5053003;28;20467;-76
2022/11/28 03:22:46;;;;;;;1999.90;999.90;;;;;;;1.39;100.00;98479.56;5052662;28;20040;-77
2022/11/28 03:25:30;;;;;;;1999.90;999.90;;;;;;;1.41;100.00;98469.38;5050720;28;20114;-74
2022/11/28 03:28:01;;;;;;;1999.90;999.90;;;;;;;1.38;100.00;98469.03;5050279;28;20393;-75
2022/11/28 03:30:29;;;;;;;1999.90;999.90;;;;;;;1.40;100.00;98470.44;5052441;28;20363;-76
2022/11/28 03:32:56;;;;;;;1999.90;999.90;;;;;;;1.52;100.00;98470.50;5055472;28;20039;-76
2022/11/28 03:35:27;;;;;;;1999.90;999.90;;;;;;;1.43;100.00;98470.00;5052361;28;20018;-77
2022/11/28 03:37:59;;;;;;;1999.90;999.90;;;;;;;1.45;100.00;98453.59;5052269;28;20104;-77
2022/11/28 03:40:31;;;;;;;1999.90;999.90;;;;;;;1.46;100.00;98452.56;5052109;28;20029;-77
2022/11/28 03:43:02;;;;;;;1999.90;999.90;;;;;;;1.59;100.00;98447.00;5052302;28;20037;-74
2022/11/28 03:45:34;;;;;;;1999.90;999.90;;;;;;;1.57;100.00;98443.69;5051317;28;20021;-75
2022/11/28 03:48:08;;;;;;;1999.90;999.90;;;;;;;1.54;100.00;98449.53;5051082;28;20033;-75
2022/11/28 03:50:45;;;;;;;1999.90;999.90;;;;;;;1.57;100.00;98449.09;5052117;28;20494;-73
2022/11/28 03:53:17;;;;;;;1999.90;999.90;;;;;;;1.59;100.00;98449.69;5052084;28;20509;-74
2022/11/28 03:55:50;;;;;;;1999.90;999.90;;;;;;;1.51;100.00;98436.50;5047746;28;20025;-77
2022/11/28 03:58:25;;;;;;;1999.90;999.90;;;;;;;1.59;100.00;98447.00;5042672;28;20092;-75
2022/11/28 04:01:10;;;;;;;1999.90;999.90;;;;;;;1.66;100.00;98453.13;5064066;28;20119;-76
2022/11/28 04:03:51;;;;;;;1999.90;999.90;;;;;;;1.69;100.00;98443.78;5051197;28;20033;-74
2022/11/28 04:06:26;;;;;;;1999.90;999.90;;;;;;;1.78;100.00;98455.91;5051290;28;20087;-75
2022/11/28 04:09:02;;;;;;;1999.90;999.90;;;;;;;1.72;100.00;98448.72;5052103;28;20025;-75
2022/11/28 04:11:36;;;;;;;1999.90;999.90;;;;;;;1.67;100.00;98441.28;5050947;28;20079;-74
2022/11/28 04:14:15;;;;;;;1999.90;999.90;;;;;;;1.62;100.00;98446.56;5046285;28;20018;-74
2022/11/28 04:17:09;;;;;;;1999.90;999.90;;;;;;;1.66;100.00;98452.31;5030759;28;20025;-75
2022/11/28 04:19:40;;;;;;;1999.90;999.90;;;;;;;1.75;100.00;98449.09;5021151;28;20111;-76
2022/11/28 04:22:19;;;;;;;1999.90;999.90;;;;;;;1.68;100.00;98448.34;5031802;28;20025;-76
2022/11/28 04:24:50;;;;;;;1999.90;999.90;;;;;;;1.72;100.00;98452.25;5029950;28;20120;-74
2022/11/28 04:27:22;;;;;;;1999.90;999.90;;;;;;;1.53;100.00;98453.31;5029527;28;20033;-74
2022/11/28 04:29:52;;;;;;;1999.90;999.90;;;;;;;1.55;100.00;98451.19;5063355;28;20363;-74
2022/11/28 04:32:20;;;;;;;1999.90;999.90;;;;;;;1.49;100.00;98449.41;5031474;28;20401;-75
2022/11/28 04:34:51;;;;;;;1999.90;999.90;;;;;;;1.35;100.00;98432.56;5030240;28;20124;-74
2022/11/28 04:37:18;;;;;;;1999.90;999.90;;;;;;;1.28;100.00;98431.00;5031098;28;20108;-76
2022/11/28 04:39:47;;;;;;;1999.90;999.90;;;;;;;1.27;100.00;98448.19;5030978;28;20109;-74
2022/11/28 04:42:18;;;;;;;1999.90;999.90;;;;;;;1.34;100.00;98440.88;5031025;28;20039;-74
2022/11/28 04:45:05;;;;;;;1999.90;999.90;;;;;;;1.33;100.00;98452.69;5029971;28;20352;-77
2022/11/28 04:47:30;;;;;;;1999.90;999.90;;;;;;;1.24;100.00;98430.63;5030952;28;20549;-74
2022/11/28 04:49:56;;;;;;;1999.90;999.90;;;;;;;1.31;100.00;98441.31;5031349;28;20113;-75
2022/11/28 04:52:44;;;;;;;1999.90;999.90;;;;;;;1.31;100.00;98438.63;5054803;28;20482;-75
2022/11/28 04:55:28;;;;;;;1999.90;999.90;;;;;;;1.24;100.00;98449.47;5051220;28;20045;-73
2022/11/28 04:58:05;;;;;;;1999.90;999.90;;;;;;;1.19;100.00;98440.44;5050902;28;20037;-75
2022/11/28 05:00:33;;;;;;;1999.90;999.90;;;;;;;1.36;100.00;98441.47;5050487;28;20033;-73
2022/11/28 05:02:59;;;;;;;1999.90;999.90;;;;;;;1.43;100.00;98434.97;5050644;28;20028;-74
2022/11/28 05:05:27;;;;;;;1999.90;999.90;;;;;;;1.45;100.00;98442.81;5050726;28;20041;-79
2022/11/28 05:07:53;;;;;;;1999.90;999.90;;;;;;;1.49;100.00;98441.31;5050640;28;20053;-75
2022/11/28 05:10:19;;;;;;;1999.90;999.90;;;;;;;1.46;100.00;98449.84;5052214;28;20055;-74
2022/11/28 05:12:44;;;;;;;1999.90;999.90;;;;;;;1.52;100.00;98435.47;5056237;28;20032;-75
2022/11/28 05:15:11;;;;;;;1999.90;999.90;;;;;;;1.62;100.00;98435.78;5051561;28;20025;-74
2022/11/28 05:17:37;;;;;;;1999.90;999.90;;;;;;;1.66;100.00;98433.44;5050386;28;20063;-74
2022/11/28 05:20:04;;;;;;;1999.90;999.90;;;;;;;1.77;100.00;98430.81;5050439;28;20032;-75
2022/11/28 05:22:29;;;;;;;1999.90;999.90;;;;;;;1.71;100.00;98428.19;5049891;28;20029;-75
2022/11/28 05:24:55;;;;;;;1999.90;999.90;;;;;;;1.68;100.00;98429.47;5050671;28;20528;-76
2022/11/28 05:27:20;;;;;;;1999.90;999.90;;;;;;;1.77;100.00;98433.50;5050304;28;20056;-73
2022/11/28 05:29:45;;;;;;;1999.90;999.90;;;;;;;1.68;100.00;98424.09;5032127;28;20053;-76
2022/11/28 05:32:12;;;;;;;1999.90;999.90;;;;;;;1.71;100.00;98429.03;5048958;28;20032;-75
2022/11/28 05:34:38;;;;;;;1999.90;999.90;;;;;;;1.65;100.00;98419.16;5050044;28;20044;-75
2022/11/28 05:37:04;;;;;;;1999.90;999.90;;;;;;;1.79;100.00;98419.78;5050298;28;20055;-75
2022/11/28 05:39:30;;;;;;;1999.90;999.90;;;;;;;1.80;100.00;98422.25;5049334;28;20543;-75
2022/11/28 05:41:55;;;;;;;1999.90;999.90;;;;;;;1.92;100.00;98428.53;5052273;28;20025;-75
2022/11/28 05:44:21;;;;;;;1999.90;999.90;;;;;;;1.91;100.00;98428.78;5050765;28;20081;-75
2022/11/28 05:46:46;;;;;;;1999.90;999.90;;;;;;;1.77;100.00;98411.94;5048688;28;20035;-75
2022/11/28 05:49:12;;;;;;;1999.90;999.90;;;;;;;1.78;100.00;98416.28;5050150;28;20400;-76
2022/11/28 05:51:37;;;;;;;1999.90;999.90;;;;;;;1.83;100.00;98415.59;5052161;28;20108;-74
2022/11/28 05:54:03;;;;;;;1999.90;999.90;;;;;;;1.79;100.00;98406.28;5054097;28;20112;-75
2022/11/28 05:56:28;;;;;;;1999.90;999.90;;;;;;;1.71;100.00;98409.31;5053888;28;20394;-75
2022/11/28 05:58:54;;;;;;;1999.90;999.90;;;;;;;1.81;100.00;98423.09;5051770;28;20021;-74
2022/11/28 06:01:22;;;;;;;1999.90;999.90;;;;;;;1.79;100.00;98415.22;5042642;28;20103;-75
2022/11/28 06:03:47;;;;;;;1999.90;999.90;;;;;;;1.75;100.00;98407.81;5053931;28;20067;-74
2022/11/28 06:06:21;;;;;;;1999.90;999.90;;;;;;;1.89;100.00;98418.19;5041676;28;20123;-76
2022/11/28 06:08:48;;;;;;;1999.90;999.90;;;;;;;1.72;100.00;98409.09;5049711;28;20068;-76
2022/11/28 06:11:14;;;;;;;1999.90;999.90;;;;;;;1.85;100.00;98419.69;5054081;28;20108;-75
2022/11/28 06:13:41;;;;;;;1999.90;999.90;;;;;;;1.82;100.00;98403.97;5053497;28;20538;-74
2022/11/28 06:16:08;;;;;;;1999.90;999.90;;;;;;;1.80;100.00;98416.88;5052980;28;20036;-76
2022/11/28 06:18:34;;;;;;;1999.90;999.90;;;;;;;1.82;100.00;98409.38;5053649;28;20063;-77
2022/11/28 06:21:04;;;;;;;1999.90;999.90;;;;;;;1.81;100.00;98399.66;5056382;28;20024;-75
2022/11/28 06:23:30;;;;;;;1999.90;999.90;;;;;;;1.90;100.00;98410.94;5059496;28;20040;-79
2022/11/28 06:25:56;;;;;;;1999.90;999.90;;;;;;;1.84;100.00;98409.97;5054816;28;20097;-77
2022/11/28 06:28:22;;;;;;;1999.90;999.90;;;;;;;1.81;100.00;98405.03;5058088;28;20061;-76
2022/11/28 06:30:47;;;;;;;1999.90;999.90;;;;;;;1.80;100.00;98395.28;5056619;28;20035;-76
2022/11/28 06:33:12;;;;;;;1999.90;999.90;;;;;;;1.78;100.00;98393.88;5052663;28;20051;-75
2022/11/28 06:35:38;;;;;;;1999.90;999.90;;;;;;;1.59;100.00;98393.09;5053305;28;20032;-75
2022/11/28 06:38:03;;;;;;;1999.90;999.90;;;;;;;1.65;100.00;98400.28;5053414;28;20071;-78
2022/11/28 06:40:30;;;;;;;1999.90;999.90;;;;;;;1.73;100.00;98401.81;5053619;28;20400;-74
2022/11/28 06:42:55;;;;;;;1999.90;999.90;;;;;;;1.75;100.00;98400.56;5053206;28;20029;-75
2022/11/28 06:45:20;;;;;;;1999.90;999.90;;;;;;;1.78;100.00;98394.72;5053012;28;20031;-80
2022/11/28 06:47:46;;;;;;;1999.90;999.90;;;;;;;1.91;100.00;98399.91;5054610;28;20025;-79
2022/11/28 06:50:12;;;;;;;1999.90;999.90;;;;;;;1.94;100.00;98404.03;5060317;28;20096;-79
2022/11/28 06:52:38;;;;;;;1999.90;999.90;;;;;;;1.90;100.00;98390.19;5055455;28;20052;-75
2022/11/28 06:55:04;;;;;;;1999.90;999.90;;;;;;;1.84;100.00;98401.88;5048651;28;20437;-77
2022/11/28 06:57:31;;;;;;;1999.90;999.90;;;;;;;1.85;100.00;98403.50;5053664;28;20077;-76
2022/11/28 06:59:56;;;;;;;1999.90;999.90;;;;;;;1.99;100.00;98404.16;5052508;28;20041;-78
2022/11/28 07:02:23;;;;;;;1999.90;999.90;;;;;;;1.98;100.00;98397.94;5051157;28;20112;-76
2022/11/28 07:04:49;;;;;;;1999.90;999.90;;;;;;;1.95;100.00;98402.97;5052514;28;20497;-75
2022/11/28 07:07:14;;;;;;;1999.90;999.90;;;;;;;1.93;100.00;98402.38;5052608;28;20127;-76
2022/11/28 07:09:40;;;;;;;1999.90;999.90;;;;;;;1.87;100.00;98400.59;5052852;28;20051;-79
2022/11/28 07:12:05;;;;;;;1999.90;999.90;;;;;;;1.78;100.00;98394.72;5052798;28;20061;-76
2022/11/28 07:14:32;;;;;;;1999.90;999.90;;;;;;;1.80;100.00;98406.09;5057340;28;20032;-82
2022/11/28 07:16:57;;;;;;;1999.90;999.90;;;;;;;1.59;100.00;98395.78;5054813;28;20111;-81
2022/11/28 07:19:23;;;;;;;1999.90;999.90;;;;;;;1.53;100.00;98381.38;5051813;28;20533;-75
2022/11/28 07:21:49;;;;;;;1999.90;999.90;;;;;;;1.69;100.00;98393.38;5052983;28;20048;-76
2022/11/28 07:24:16;;;;;;;1999.90;999.90;;;;;;;1.66;100.00;98398.41;5052446;28;20037;-77
2022/11/28 07:26:41;;;;;;;1999.90;999.90;;;;;;;1.94;100.00;98395.94;5052594;28;20115;-76
2022/11/28 07:29:13;;;;;;;1999.90;999.90;;;;;;;1.93;100.00;98397.81;5052308;28;20541;-82
2022/11/28 07:31:38;;;;;;;1999.90;999.90;;;;;;;1.95;100.00;98390.31;5054013;28;20051;-81
2022/11/28 07:34:03;;;;;;;1999.90;999.90;;;;;;;2.02;100.00;98388.34;5053578;28;20473;-79
2022/11/28 07:36:29;;;;;;;1999.90;999.90;;;;;;;2.18;100.00;98389.56;5048460;28;20033;-76
2022/11/28 07:38:57;;;;;;;1999.90;999.90;;;;;;;2.21;100.00;98385.56;5032926;28;20026;-76
2022/11/28 07:41:23;;;;;;;1999.90;999.90;;;;;;;2.20;100.00;98389.31;5038906;28;20128;-77
2022/11/28 07:43:53;;;;;;;1999.90;999.90;;;;;;;2.29;100.00;98386.06;5046293;28;20028;-77
2022/11/28 07:46:19;;;;;;;1999.90;999.90;;;;;;;2.41;100.00;98384.19;5050076;28;20033;-78
2022/11/28 07:48:46;;;;;;;1999.90;999.90;;;;;;;2.55;100.00;98376.72;5048436;28;20021;-77
2022/11/28 07:51:18;;;;;;;1999.90;999.90;;;;;;;2.66;100.00;98371.31;5050919;28;20025;-77
2022/11/28 07:53:43;;;;;;;1999.90;999.90;;;;;;;2.79;100.00;98375.66;5050809;28;20154;-79
2022/11/28 07:56:17;;;;;;;1999.90;999.90;;;;;;;2.82;100.00;98382.47;5050919;28;20104;-79
2022/11/28 07:58:44;;;;;;;1999.90;999.90;;;;;;;2.89;100.00;98399.38;5050035;28;20052;-77
2022/11/28 08:01:12;;;;;;;1999.90;999.90;;;;;;;2.91;100.00;98391.88;5052261;28;20032;-77
2022/11/28 08:03:37;;;;;;;1999.90;999.90;;;;;;;2.55;100.00;98376.72;5053611;28;20031;-76
2022/11/28 08:06:04;;;;;;;1999.90;999.90;;;;;;;2.25;100.00;98392.16;5050644;28;20041;-77
2022/11/28 08:08:29;;;;;;;1999.90;999.90;;;;;;;2.36;100.00;98394.03;5051784;28;20021;-77
2022/11/28 08:10:59;;;;;;;1999.90;999.90;;;;;;;2.53;100.00;98371.56;5051095;28;20013;-76
2022/11/28 08:13:25;;;;;;;1999.90;999.90;;;;;;;2.64;100.00;98386.09;5045035;28;20029;-76
2022/11/28 08:15:50;;;;;;;1999.90;999.90;;;;;;;2.75;100.00;98381.78;5051609;28;20501;-76
2022/11/28 08:18:16;;;;;;;1999.90;999.90;;;;;;;2.89;100.00;98373.19;5051670;28;20009;-76
2022/11/28 08:20:41;;;;;;;1999.90;999.90;;;;;;;2.84;100.00;98386.59;5051555;28;20029;-77
2022/11/28 08:23:07;;;;;;;1999.90;999.90;;;;;;;3.19;100.00;98379.28;5050533;28;20012;-78
2022/11/28 08:25:33;;;;;;;1999.90;999.90;;;;;;;3.38;100.00;98377.25;5052114;28;20039;-78
2022/11/28 08:27:58;;;;;;;1999.90;999.90;;;;;;;3.25;100.00;98377.50;5051923;28;20513;-78
2022/11/28 08:30:23;;;;;;;1999.90;999.90;;;;;;;3.36;100.00;98373.94;5052296;28;20428;-76
2022/11/28 08:32:49;;;;;;;1999.90;999.90;;;;;;;3.50;100.00;98379.91;5052457;28;20048;-81
2022/11/28 08:35:15;;;;;;;1999.90;999.90;;;;;;;3.18;100.00;98372.22;5055834;28;20029;-78
2022/11/28 08:37:40;;;;;;;1999.90;999.90;;;;;;;3.27;100.00;98369.97;5056844;28;20027;-76
2022/11/28 08:40:06;;;;;;;1999.90;999.90;;;;;;;3.56;100.00;98373.53;5050598;28;20088;-76
2022/11/28 08:42:31;;;;;;;1999.90;999.90;;;;;;;3.65;100.00;98372.94;5051641;28;20029;-77
2022/11/28 08:44:57;;;;;;;1999.90;999.90;;;;;;;3.64;100.00;98370.44;5052035;28;20025;-78
2022/11/28 08:47:22;;;;;;;1999.90;999.90;;;;;;;3.51;100.00;98365.34;5051340;28;20043;-77
2022/11/28 08:49:48;;;;;;;1999.90;999.90;;;;;;;3.71;100.00;98366.56;5049666;28;20098;-80
2022/11/28 08:52:13;;;;;;;1999.90;999.90;;;;;;;3.67;100.00;98361.84;5051203;28;20444;-78
2022/11/28 08:54:39;;;;;;;1999.90;999.90;;;;;;;3.77;100.00;98362.88;5047314;28;20027;-78
2022/11/28 08:57:05;;;;;;;1999.90;999.90;;;;;;;4.01;100.00;98355.47;5046368;28;20060;-79
2022/11/28 08:59:30;;;;;;;1999.90;999.90;;;;;;;4.17;100.00;98365.50;5049903;28;20056;-77
2022/11/28 09:01:55;;;;;;;1999.90;999.90;;;;;;;4.20;100.00;98362.31;5049971;28;20048;-78
2022/11/28 09:04:23;;;;;;;1999.90;999.90;;;;;;;4.44;100.00;98349.44;5049809;28;20091;-77
2022/11/28 09:06:49;;;;;;;1999.90;999.90;;;;;;;4.46;100.00;98352.72;5049714;28;20438;-78
2022/11/28 09:09:14;;;;;;;1999.90;999.90;;;;;;;5.07;100.00;98332.78;5049678;28;20021;-79
2022/11/28 09:11:40;;;;;;;1999.90;999.90;;;;;;;5.34;100.00;98344.53;5049617;28;20044;-79
2022/11/28 09:14:08;;;;;;;1999.90;999.90;;;;;;;5.69;100.00;98348.72;5049555;28;20025;-77
2022/11/28 09:16:34;;;;;;;1999.90;999.90;;;;;;;5.92;100.00;98343.03;5050122;28;20016;-78
2022/11/28 09:18:59;;;;;;;1999.90;999.90;;;;;;;6.75;100.00;98328.81;5049370;28;20124;-78
2022/11/28 09:21:28;;;;;;;1999.90;999.90;;;;;;;7.93;100.00;98331.81;5049715;28;20519;-79
2022/11/28 09:23:57;;;;;;;1999.90;999.90;;;;;;;9.07;100.00;98323.13;5049491;28;20048;-80
2022/11/28 09:26:24;;;;;;;1999.90;999.90;;;;;;;9.37;100.00;98328.50;5044687;28;20495;-77
2022/11/28 09:28:50;;;;;;;1999.90;999.90;;;;;;;9.00;100.00;98323.41;5049232;28;20028;-79
2022/11/28 09:31:17;;;;;;;1999.90;999.90;;;;;;;11.12;100.00;98329.53;5045958;28;20538;-78
2022/11/28 09:33:48;;;;;;;1999.90;999.90;;;;;;;11.36;91.82;98327.63;5046862;28;20025;-77
2022/11/28 09:36:17;;;;;;;1999.90;999.90;;;;;;;11.05;91.70;98321.66;5053934;28;20036;-82
2022/11/28 09:38:43;;;;;;;1999.90;999.90;;;;;;;10.19;95.75;98329.75;5048113;28;20017;-80
2022/11/28 09:41:42;;;;;;;1999.90;999.90;;;;;;;8.10;100.00;98321.50;5051725;28;20040;-79
2022/11/28 09:44:15;;;;;;;1999.90;999.90;;;;;;;7.56;100.00;98312.91;5054659;28;20404;-84
2022/11/28 09:46:41;;;;;;;1999.90;999.90;;;;;;;7.52;100.00;98309.91;5051400;28;20121;-78
2022/11/28 09:49:51;;;;;;;1999.90;999.90;;;;;;;6.84;100.00;98310.13;5050581;28;20029;-78
2022/11/28 09:52:25;;;;;;;1999.90;999.90;;;;;;;6.68;100.00;98313.81;5034942;28;20057;-81
2022/11/28 09:55:12;;;;;;;1999.90;999.90;;;;;;;6.69;100.00;98305.41;5052890;28;20045;-81
2022/11/28 09:57:45;;;;;;;1999.90;999.90;;;;;;;6.51;100.00;98297.69;5050096;28;20470;-81
2022/11/28 10:00:47;;;;;;;1999.90;999.90;;;;;;;6.47;100.00;98297.38;5046340;28;20029;-79
2022/11/28 10:03:15;;;;;;;1999.90;999.90;;;;;;;7.23;100.00;98297.00;5048232;28;20049;-81
2022/11/28 10:06:05;;;;;;;1999.90;999.90;;;;;;;7.17;100.00;98288.03;5050982;28;20047;-84
2022/11/28 10:09:02;;;;;;;1999.90;999.90;;;;;;;7.36;100.00;98282.94;5043711;28;20025;-76
2022/11/28 10:11:55;;;;;;;1999.90;999.90;;;;;;;7.19;100.00;98279.56;5044598;28;20020;-84
2022/11/28 10:14:49;;;;;;;1999.90;999.90;;;;;;;6.90;100.00;98279.97;5042808;28;20065;-87
2022/11/28 10:17:22;;;;;;;1999.90;999.90;;;;;;;6.67;100.00;98282.31;5050382;28;20040;-85
2022/11/28 10:19:56;;;;;;;1999.90;999.90;;;;;;;6.58;100.00;98273.00;5050654;28;20470;-82
2022/11/28 10:22:45;;;;;;;1999.90;999.90;;;;;;;6.64;100.00;98267.31;5040564;28;20098;-80
2022/11/28 10:25:17;;;;;;;1999.90;999.90;;;;;;;6.70;100.00;98274.44;5047449;28;20149;-81
2022/11/28 10:27:44;;;;;;;1999.90;999.90;;;;;;;6.68;100.00;98259.44;5047497;28;20511;-85
2022/11/28 10:30:32;;;;;;;1999.90;999.90;;;;;;;6.69;100.00;98258.38;5059867;28;20383;-85
2022/11/28 10:33:07;;;;;;;1999.90;999.90;;;;;;;6.63;100.00;98254.00;5043806;28;20082;-82
2022/11/28 10:35:43;;;;;;;1999.90;999.90;;;;;;;6.78;100.00;98244.03;5045160;28;20923;-81
2022/11/28 10:38:14;;;;;;;1999.90;999.90;;;;;;;6.65;100.00;98249.94;5051644;28;20056;-83
2022/11/28 10:41:01;;;;;;;1999.90;999.90;;;;;;;6.79;100.00;98253.00;5056444;28;20021;-84
2022/11/28 10:43:42;;;;;;;1999.90;999.90;;;;;;;6.99;100.00;98236.78;5063018;28;20102;-86
2022/11/28 10:46:37;;;;;;;1999.90;999.90;;;;;;;6.64;100.00;98242.06;5066427;28;20036;-85
2022/11/28 10:49:14;;;;;;;1999.90;999.90;;;;;;;6.87;100.00;98234.28;5059105;28;20501;-85
2022/11/28 10:52:07;;;;;;;1999.90;999.90;;;;;;;6.92;100.00;98236.22;5054621;28;20029;-82
2022/11/28 10:55:16;;;;;;;1999.90;999.90;;;;;;;6.45;100.00;98226.16;5046268;28;20029;-79
2022/11/28 10:58:09;;;;;;;1999.90;999.90;;;;;;;6.45;100.00;98220.72;5050491;28;20032;-84
2022/11/28 11:00:36;;;;;;;1999.90;999.90;;;;;;;6.64;100.00;98218.38;5049647;28;20067;-80
2022/11/28 11:03:03;;;;;;;1999.90;999.90;;;;;;;6.75;100.00;98213.84;5050386;28;20058;-79
2022/11/28 11:05:37;;;;;;;1999.90;999.90;;;;;;;7.16;100.00;98212.94;5050069;28;20179;-77
2022/11/28 11:08:23;;;;;;;1999.90;999.90;;;;;;;7.35;100.00;98211.38;5045328;28;20033;-79
2022/11/28 11:11:08;;;;;;;1999.90;999.90;;;;;;;6.58;100.00;98207.78;5052062;28;20413;-78
2022/11/28 11:13:58;;;;;;;1999.90;999.90;;;;;;;6.85;100.00;98201.13;5051216;28;20029;-80